Time;durP1;ratioP1;P1;durP2;ratioP2;P2;SDS_P1;SDS_P2;PMS_P1;PMS_P2;Temp;Humidity;BMP_temperature;BMP_pressure;BME280_temperature;BME280_humidity;BME280_pressure;Samples;Min_cycle;Max_cycle;Signal;HPM_P1;HPM_P2
2023/08/16 00:10:02;;;;;;;8.30;6.43;;;;;;;;;;4927233;28;20058;-78
2023/08/16 00:12:28;;;;;;;9.98;6.68;;;;;;;;;;4871121;28;20676;-78
2023/08/16 00:14:54;;;;;;;9.48;7.95;;;;;;;;;;4890662;28;20082;-78
2023/08/16 00:17:20;;;;;;;9.85;8.52;;;;;;;;;;4885348;28;20051;-79
2023/08/16 00:19:46;;;;;;;11.65;9.85;;;;;;;;;;4918874;28;20043;-79
2023/08/16 00:22:12;;;;;;;14.50;10.73;;;;;;;;;;4905127;28;20043;-78
2023/08/16 00:24:38;;;;;;;18.17;11.32;;;;;;;;;;4905872;28;20047;-78
2023/08/16 00:27:07;;;;;;;15.38;11.48;;;;;;;;;;4920210;28;20060;-78
2023/08/16 00:29:33;;;;;;;15.80;11.32;;;;;;;;;;4905506;28;20200;-78
2023/08/16 00:32:02;;;;;;;19.17;12.13;;;;;;;;;;4927487;28;20055;-78
2023/08/16 00:34:28;;;;;;;16.58;10.55;;;;;;;;;;4918928;28;20043;-78
2023/08/16 00:36:54;;;;;;;17.95;11.10;;;;;;;;;;4917426;28;20039;-78
2023/08/16 00:39:20;;;;;;;16.73;11.55;;;;;;;;;;4906380;28;20053;-79
2023/08/16 00:41:47;;;;;;;12.82;11.15;;;;;;;;;;4872033;28;20051;-78
2023/08/16 00:44:13;;;;;;;14.30;10.82;;;;;;;;;;4907181;28;20056;-78
2023/08/16 00:46:39;;;;;;;19.88;11.07;;;;;;;;;;4921427;28;20043;-78
2023/08/16 00:49:07;;;;;;;16.77;11.60;;;;;;;;;;4920981;28;22098;-79
2023/08/16 00:51:34;;;;;;;19.60;12.07;;;;;;;;;;4922778;28;20050;-78
2023/08/16 00:54:00;;;;;;;16.25;11.57;;;;;;;;;;4903880;28;20462;-79
2023/08/16 00:56:29;;;;;;;11.70;10.43;;;;;;;;;;4905446;28;20101;-79
2023/08/16 00:58:55;;;;;;;11.88;9.95;;;;;;;;;;4916127;28;20074;-79
2023/08/16 01:01:22;;;;;;;12.13;10.20;;;;;;;;;;4916560;28;20186;-79
2023/08/16 01:03:48;;;;;;;13.07;11.30;;;;;;;;;;4916935;28;20055;-79
2023/08/16 01:06:16;;;;;;;14.38;10.15;;;;;;;;;;4894723;28;21030;-79
2023/08/16 01:08:43;;;;;;;13.27;10.23;;;;;;;;;;4890739;28;20051;-79
2023/08/16 01:11:29;;;;;;;11.20;9.68;;;;;;;;;;4905384;28;20081;-79
2023/08/16 01:14:01;;;;;;;13.68;10.10;;;;;;;;;;4904458;28;20055;-79
2023/08/16 01:16:28;;;;;;;14.50;11.02;;;;;;;;;;4890531;29;20711;-79
2023/08/16 01:18:55;;;;;;;15.02;10.27;;;;;;;;;;4901165;29;20122;-78
2023/08/16 01:21:24;;;;;;;14.82;11.27;;;;;;;;;;4911503;28;20139;-78
2023/08/16 01:24:06;;;;;;;11.95;9.50;;;;;;;;;;4910399;29;20158;-78
2023/08/16 01:26:36;;;;;;;14.43;10.73;;;;;;;;;;4904879;29;20047;-78
2023/08/16 01:29:03;;;;;;;14.35;10.07;;;;;;;;;;4903274;29;20051;-79
2023/08/16 01:31:30;;;;;;;16.27;10.77;;;;;;;;;;4906168;28;20446;-79
2023/08/16 01:33:59;;;;;;;14.98;11.00;;;;;;;;;;4904690;28;20070;-78
2023/08/16 01:36:25;;;;;;;11.88;10.70;;;;;;;;;;4890266;29;20058;-78
2023/08/16 01:38:55;;;;;;;13.43;10.88;;;;;;;;;;4903745;28;20107;-78
2023/08/16 01:41:21;;;;;;;14.80;10.35;;;;;;;;;;4904760;29;20043;-78
2023/08/16 01:43:48;;;;;;;14.40;10.43;;;;;;;;;;4901327;29;20269;-78
2023/08/16 01:46:16;;;;;;;12.35;9.90;;;;;;;;;;4904064;29;20048;-78
2023/08/16 01:48:42;;;;;;;16.98;9.98;;;;;;;;;;4904025;28;20080;-78
2023/08/16 01:51:08;;;;;;;10.32;9.20;;;;;;;;;;4908173;28;20057;-78
2023/08/16 01:53:37;;;;;;;13.63;9.82;;;;;;;;;;4903453;28;20472;-78
2023/08/16 01:56:03;;;;;;;12.20;9.52;;;;;;;;;;4891828;29;20134;-78
2023/08/16 01:58:30;;;;;;;10.13;9.02;;;;;;;;;;4901137;28;20103;-78
2023/08/16 02:00:56;;;;;;;14.18;9.85;;;;;;;;;;4887700;29;20059;-79
2023/08/16 02:03:22;;;;;;;15.75;9.90;;;;;;;;;;4900275;29;20147;-78
2023/08/16 02:05:48;;;;;;;14.73;10.18;;;;;;;;;;4903496;29;20051;-79
2023/08/16 02:08:14;;;;;;;7.78;6.97;;;;;;;;;;4903411;29;20994;-79
2023/08/16 02:10:40;;;;;;;9.15;7.60;;;;;;;;;;4902452;29;20159;-80
2023/08/16 02:13:06;;;;;;;12.23;9.20;;;;;;;;;;4900737;29;20443;-79
2023/08/16 02:15:32;;;;;;;10.02;8.90;;;;;;;;;;4906666;28;20059;-77
2023/08/16 02:17:59;;;;;;;11.60;9.27;;;;;;;;;;4902331;28;20142;-78
2023/08/16 02:20:25;;;;;;;11.05;9.82;;;;;;;;;;4905264;28;20047;-78
2023/08/16 02:22:51;;;;;;;10.63;9.52;;;;;;;;;;4906843;28;20043;-78
2023/08/16 02:25:17;;;;;;;14.95;10.95;;;;;;;;;;4890589;28;20050;-78
2023/08/16 02:27:43;;;;;;;14.32;10.52;;;;;;;;;;4920298;28;20054;-78
2023/08/16 02:30:12;;;;;;;14.40;10.43;;;;;;;;;;4904255;28;20624;-78
2023/08/16 02:32:39;;;;;;;13.80;11.38;;;;;;;;;;4924205;28;20043;-78
2023/08/16 02:35:05;;;;;;;14.10;11.25;;;;;;;;;;4905883;28;20035;-80
2023/08/16 02:37:31;;;;;;;13.68;11.40;;;;;;;;;;4920259;28;20095;-79
2023/08/16 02:39:57;;;;;;;13.88;10.82;;;;;;;;;;4914974;28;20043;-79
2023/08/16 02:42:23;;;;;;;12.70;10.35;;;;;;;;;;4920184;28;20051;-79
2023/08/16 02:44:49;;;;;;;12.90;10.70;;;;;;;;;;4923159;28;20109;-78
2023/08/16 02:47:25;;;;;;;15.23;10.85;;;;;;;;;;4894945;28;20056;-78
2023/08/16 02:49:51;;;;;;;14.93;10.20;;;;;;;;;;4899080;28;20043;-79
2023/08/16 02:52:18;;;;;;;11.27;9.43;;;;;;;;;;4912370;28;20039;-79
2023/08/16 02:54:46;;;;;;;14.43;10.43;;;;;;;;;;4928816;28;20058;-79
2023/08/16 02:57:13;;;;;;;12.43;10.23;;;;;;;;;;4899144;28;20078;-80
2023/08/16 02:59:40;;;;;;;11.48;9.73;;;;;;;;;;4906073;28;20075;-79
2023/08/16 03:02:09;;;;;;;15.55;10.07;;;;;;;;;;4905432;28;20047;-79
2023/08/16 03:04:41;;;;;;;13.35;9.15;;;;;;;;;;4911032;28;20046;-80
2023/08/16 03:07:08;;;;;;;12.82;9.90;;;;;;;;;;4905156;28;20436;-80
2023/08/16 03:09:34;;;;;;;11.57;9.90;;;;;;;;;;4907865;28;20752;-80
2023/08/16 03:12:00;;;;;;;11.48;9.48;;;;;;;;;;4906654;28;20145;-80
2023/08/16 03:14:28;;;;;;;16.60;10.65;;;;;;;;;;4905821;28;20145;-79
2023/08/16 03:16:54;;;;;;;11.25;9.65;;;;;;;;;;4904533;28;20060;-79
2023/08/16 03:19:20;;;;;;;14.70;9.45;;;;;;;;;;4894231;28;20055;-79
2023/08/16 03:21:47;;;;;;;15.40;9.93;;;;;;;;;;4910859;28;20075;-88
2023/08/16 03:24:13;;;;;;;12.95;9.73;;;;;;;;;;4912817;28;20047;-89
2023/08/16 03:26:39;;;;;;;11.85;10.02;;;;;;;;;;4913176;28;20902;-89
2023/08/16 03:29:08;;;;;;;10.63;9.48;;;;;;;;;;4916862;28;20054;-90
2023/08/16 03:31:34;;;;;;;16.40;9.90;;;;;;;;;;4917270;28;20503;-89
2023/08/16 03:34:03;;;;;;;14.15;9.77;;;;;;;;;;4897721;28;20054;-88
2023/08/16 03:36:29;;;;;;;12.63;9.80;;;;;;;;;;4882369;28;20050;-90
2023/08/16 03:38:55;;;;;;;13.43;10.15;;;;;;;;;;4885957;28;20102;-90
2023/08/16 03:41:21;;;;;;;12.07;10.32;;;;;;;;;;4913358;28;20600;-89
2023/08/16 03:43:47;;;;;;;11.77;9.32;;;;;;;;;;4928571;28;20101;-89
2023/08/16 03:46:13;;;;;;;11.18;10.07;;;;;;;;;;4911347;28;20159;-87
2023/08/16 03:48:39;;;;;;;10.90;9.80;;;;;;;;;;4925385;28;20166;-88
2023/08/16 03:51:09;;;;;;;12.60;10.18;;;;;;;;;;4897965;28;20061;-89
2023/08/16 03:53:35;;;;;;;12.43;9.77;;;;;;;;;;4903260;28;20150;-89
2023/08/16 03:56:01;;;;;;;10.73;9.63;;;;;;;;;;4911129;28;20047;-90
2023/08/16 03:58:27;;;;;;;20.55;11.05;;;;;;;;;;4905279;28;20044;-89
2023/08/16 04:00:56;;;;;;;35.85;6.55;;;;;;;;;;4895670;28;20065;-89
2023/08/16 04:03:26;;;;;;;32.00;5.22;;;;;;;;;;4929753;28;20054;-88
2023/08/16 04:05:52;;;;;;;126.07;5.38;;;;;;;;;;4936175;28;20043;-89
2023/08/16 04:08:18;;;;;;;134.98;5.65;;;;;;;;;;4934491;28;20503;-88
2023/08/16 04:10:45;;;;;;;4.30;3.90;;;;;;;;;;4916095;28;20043;-84
2023/08/16 04:13:11;;;;;;;4.07;3.70;;;;;;;;;;4932773;28;20043;-86
2023/08/16 04:15:37;;;;;;;7.30;4.75;;;;;;;;;;4921448;29;20130;-89
2023/08/16 04:18:03;;;;;;;19.58;5.88;;;;;;;;;;4910360;29;20099;-88
2023/08/16 04:20:29;;;;;;;53.65;6.50;;;;;;;;;;4912558;29;20242;-91
2023/08/16 04:22:55;;;;;;;17.70;6.60;;;;;;;;;;4908991;29;20044;-89
2023/08/16 04:25:22;;;;;;;45.40;6.88;;;;;;;;;;4936240;28;20078;-90
2023/08/16 04:27:48;;;;;;;34.70;7.57;;;;;;;;;;4905696;29;20118;-90
2023/08/16 04:30:14;;;;;;;20.55;7.05;;;;;;;;;;4930166;29;20040;-82
2023/08/16 04:32:40;;;;;;;11.65;6.82;;;;;;;;;;4928255;28;20054;-82
2023/08/16 04:35:06;;;;;;;11.45;8.20;;;;;;;;;;4914957;29;20071;-81
2023/08/16 04:37:32;;;;;;;36.17;10.27;;;;;;;;;;4921877;29;20039;-81
2023/08/16 04:39:58;;;;;;;15.80;10.20;;;;;;;;;;4920690;29;20086;-81
2023/08/16 04:42:25;;;;;;;13.75;10.32;;;;;;;;;;4921330;28;20117;-80
2023/08/16 04:44:51;;;;;;;14.77;12.32;;;;;;;;;;4894176;29;20051;-80
2023/08/16 04:47:17;;;;;;;24.08;12.85;;;;;;;;;;4921559;28;20047;-80
2023/08/16 04:49:44;;;;;;;265.58;16.33;;;;;;;;;;4913140;29;20488;-80
2023/08/16 04:52:11;;;;;;;337.00;13.68;;;;;;;;;;4882704;29;20047;-81
2023/08/16 04:54:37;;;;;;;140.77;11.63;;;;;;;;;;4910380;29;20054;-82
2023/08/16 04:57:03;;;;;;;207.32;12.00;;;;;;;;;;4908078;29;20044;-81
2023/08/16 04:59:30;;;;;;;224.48;11.18;;;;;;;;;;4919067;29;22057;-81
2023/08/16 05:01:56;;;;;;;326.90;12.98;;;;;;;;;;4921058;29;20484;-82
2023/08/16 05:04:22;;;;;;;293.02;14.68;;;;;;;;;;4922919;29;20071;-82
2023/08/16 05:06:48;;;;;;;25.23;10.85;;;;;;;;;;4889386;29;20043;-82
2023/08/16 05:09:14;;;;;;;30.42;9.93;;;;;;;;;;4925750;28;20435;-82
2023/08/16 05:11:40;;;;;;;14.90;9.13;;;;;;;;;;4921798;29;20087;-81
2023/08/16 05:14:06;;;;;;;11.50;9.27;;;;;;;;;;4918238;29;20040;-82
2023/08/16 05:16:32;;;;;;;11.80;9.88;;;;;;;;;;4926849;28;20050;-81
2023/08/16 05:18:58;;;;;;;14.82;12.05;;;;;;;;;;4905951;28;20131;-81
2023/08/16 05:21:25;;;;;;;12.50;11.27;;;;;;;;;;4908659;29;20039;-80
2023/08/16 05:23:51;;;;;;;13.85;12.38;;;;;;;;;;4903726;29;20047;-81
2023/08/16 05:26:17;;;;;;;18.98;12.77;;;;;;;;;;4911080;29;20135;-81
2023/08/16 05:28:43;;;;;;;15.27;12.88;;;;;;;;;;4925440;29;20036;-81
2023/08/16 05:31:09;;;;;;;13.20;11.80;;;;;;;;;;4923144;29;20126;-82
2023/08/16 05:33:36;;;;;;;15.45;12.00;;;;;;;;;;4917959;29;20070;-80
2023/08/16 05:36:04;;;;;;;12.13;10.93;;;;;;;;;;4919279;29;20134;-80
2023/08/16 05:38:31;;;;;;;14.15;12.18;;;;;;;;;;4920166;28;20043;-81
2023/08/16 05:40:58;;;;;;;16.70;13.10;;;;;;;;;;4915554;29;20480;-81
2023/08/16 05:43:24;;;;;;;17.52;13.23;;;;;;;;;;4922015;29;20055;-81
2023/08/16 05:45:50;;;;;;;18.08;14.20;;;;;;;;;;4912396;29;20040;-81
2023/08/16 05:48:16;;;;;;;14.60;13.10;;;;;;;;;;4918788;28;20147;-80
2023/08/16 05:50:43;;;;;;;15.60;13.50;;;;;;;;;;4921721;29;20055;-81
2023/08/16 05:53:09;;;;;;;19.60;13.95;;;;;;;;;;4919202;28;20058;-80
2023/08/16 05:55:35;;;;;;;20.35;13.95;;;;;;;;;;4919894;29;20036;-80
2023/08/16 05:58:02;;;;;;;15.57;13.35;;;;;;;;;;4917863;29;20054;-80
2023/08/16 06:00:28;;;;;;;14.18;12.77;;;;;;;;;;4902701;29;20043;-80
2023/08/16 06:02:54;;;;;;;13.93;12.23;;;;;;;;;;4919449;29;20048;-81
2023/08/16 06:05:20;;;;;;;12.65;11.35;;;;;;;;;;4921418;28;20044;-81
2023/08/16 06:07:46;;;;;;;14.35;12.50;;;;;;;;;;4903956;29;20131;-81
2023/08/16 06:10:13;;;;;;;14.25;11.68;;;;;;;;;;4920629;29;20044;-81
2023/08/16 06:12:39;;;;;;;15.00;11.35;;;;;;;;;;4920407;28;20086;-81
2023/08/16 06:15:11;;;;;;;13.23;11.68;;;;;;;;;;4905836;29;20052;-81
2023/08/16 06:17:37;;;;;;;13.50;11.63;;;;;;;;;;4910644;29;22168;-81
2023/08/16 06:20:04;;;;;;;12.88;11.55;;;;;;;;;;4932983;28;20082;-81
2023/08/16 06:22:33;;;;;;;14.25;11.07;;;;;;;;;;4915232;29;20440;-82
2023/08/16 06:24:59;;;;;;;12.75;11.38;;;;;;;;;;4921056;29;20040;-80
2023/08/16 06:27:25;;;;;;;16.75;11.48;;;;;;;;;;4924355;28;20056;-82
2023/08/16 06:29:51;;;;;;;13.27;10.20;;;;;;;;;;4907005;29;20066;-81
2023/08/16 06:32:17;;;;;;;12.70;10.95;;;;;;;;;;4919154;28;20122;-81
2023/08/16 06:34:43;;;;;;;12.52;10.88;;;;;;;;;;4922907;29;20072;-82
2023/08/16 06:37:09;;;;;;;15.05;10.48;;;;;;;;;;4921306;28;20122;-81
2023/08/16 06:39:35;;;;;;;16.45;10.93;;;;;;;;;;4920817;29;20060;-81
2023/08/16 06:42:03;;;;;;;11.35;9.95;;;;;;;;;;4913412;29;20139;-81
2023/08/16 06:44:29;;;;;;;14.10;9.70;;;;;;;;;;4908776;29;20047;-81
2023/08/16 06:46:55;;;;;;;13.05;10.15;;;;;;;;;;4908362;29;20126;-80
2023/08/16 06:49:21;;;;;;;12.90;9.52;;;;;;;;;;4912643;29;20142;-80
2023/08/16 06:51:48;;;;;;;14.23;9.73;;;;;;;;;;4908975;29;20134;-81
2023/08/16 06:54:14;;;;;;;11.90;10.10;;;;;;;;;;4926368;29;20048;-81
2023/08/16 06:56:40;;;;;;;14.45;10.07;;;;;;;;;;4900520;29;20102;-80
2023/08/16 06:59:06;;;;;;;16.17;10.60;;;;;;;;;;4922913;28;20054;-82
2023/08/16 07:01:32;;;;;;;12.95;10.05;;;;;;;;;;4910241;28;20132;-81
2023/08/16 07:03:59;;;;;;;12.88;10.15;;;;;;;;;;4923029;29;20054;-81
2023/08/16 07:06:26;;;;;;;9.50;8.45;;;;;;;;;;4924397;28;20067;-81
2023/08/16 07:08:52;;;;;;;14.65;8.20;;;;;;;;;;4923472;29;20058;-81
2023/08/16 07:11:19;;;;;;;13.38;7.65;;;;;;;;;;4908617;29;20044;-80
2023/08/16 07:13:45;;;;;;;11.20;8.15;;;;;;;;;;4924811;28;20036;-80
2023/08/16 07:16:12;;;;;;;12.00;8.63;;;;;;;;;;4918690;29;20067;-81
2023/08/16 07:18:38;;;;;;;14.40;6.68;;;;;;;;;;4922701;28;20067;-81
2023/08/16 07:21:04;;;;;;;12.30;6.55;;;;;;;;;;4909572;29;20047;-81
2023/08/16 07:23:30;;;;;;;12.25;5.45;;;;;;;;;;4921599;29;20059;-81
2023/08/16 07:25:56;;;;;;;8.23;5.38;;;;;;;;;;4920125;28;20171;-82
2023/08/16 07:28:25;;;;;;;5.80;3.10;;;;;;;;;;4909263;29;20069;-82
2023/08/16 07:30:55;;;;;;;5.45;3.10;;;;;;;;;;4917005;28;20396;-82
2023/08/16 07:33:22;;;;;;;8.82;3.17;;;;;;;;;;4917541;29;20051;-81
2023/08/16 07:35:49;;;;;;;6.97;2.42;;;;;;;;;;4922646;28;20768;-81
2023/08/16 07:38:15;;;;;;;6.43;2.08;;;;;;;;;;4935321;28;20084;-81
2023/08/16 07:40:46;;;;;;;5.68;2.40;;;;;;;;;;4924828;28;20589;-82
2023/08/16 07:43:12;;;;;;;7.75;2.72;;;;;;;;;;4921691;29;20567;-82
2023/08/16 07:45:38;;;;;;;7.18;2.83;;;;;;;;;;4922770;29;20051;-82
2023/08/16 07:48:05;;;;;;;6.72;2.50;;;;;;;;;;4922636;28;20051;-82
2023/08/16 07:50:31;;;;;;;4.75;1.98;;;;;;;;;;4922727;29;20048;-82
2023/08/16 07:52:57;;;;;;;4.32;1.70;;;;;;;;;;4907502;29;20047;-82
2023/08/16 07:55:29;;;;;;;9.70;2.47;;;;;;;;;;4921881;28;20032;-82
2023/08/16 07:57:55;;;;;;;6.05;2.13;;;;;;;;;;4928491;29;20048;-83
2023/08/16 08:00:21;;;;;;;6.43;1.77;;;;;;;;;;4901534;29;20343;-82
2023/08/16 08:02:48;;;;;;;8.05;2.15;;;;;;;;;;4919946;29;20043;-82
2023/08/16 08:05:15;;;;;;;5.78;2.20;;;;;;;;;;4921106;29;20127;-82
2023/08/16 08:07:41;;;;;;;6.88;2.30;;;;;;;;;;4922597;29;20055;-82
2023/08/16 08:10:08;;;;;;;6.50;2.25;;;;;;;;;;4925379;29;20090;-82
2023/08/16 08:12:34;;;;;;;7.03;2.47;;;;;;;;;;4905529;29;20071;-81
2023/08/16 08:15:01;;;;;;;6.03;2.13;;;;;;;;;;4926310;28;20056;-82
2023/08/16 08:17:27;;;;;;;6.00;2.25;;;;;;;;;;4911098;28;20178;-82
2023/08/16 08:19:53;;;;;;;5.55;1.55;;;;;;;;;;4925636;28;20043;-82
2023/08/16 08:22:19;;;;;;;5.07;1.73;;;;;;;;;;4922339;28;20058;-82
2023/08/16 08:24:45;;;;;;;8.70;2.60;;;;;;;;;;4923647;28;20046;-82
2023/08/16 08:27:11;;;;;;;6.57;2.30;;;;;;;;;;4925176;28;20129;-82
2023/08/16 08:29:39;;;;;;;7.53;2.55;;;;;;;;;;4924664;28;20058;-82
2023/08/16 08:32:05;;;;;;;8.07;3.45;;;;;;;;;;4919541;28;20038;-81
2023/08/16 08:34:32;;;;;;;5.82;2.45;;;;;;;;;;4927841;28;20150;-81
2023/08/16 08:36:59;;;;;;;2.92;1.70;;;;;;;;;;4925418;28;20055;-82
2023/08/16 08:39:28;;;;;;;6.53;2.10;;;;;;;;;;4926140;28;20055;-82
2023/08/16 08:41:55;;;;;;;5.95;1.92;;;;;;;;;;4928946;28;20047;-82
2023/08/16 08:44:22;;;;;;;5.10;1.60;;;;;;;;;;4937092;28;20047;-82
2023/08/16 08:46:49;;;;;;;4.63;1.70;;;;;;;;;;4918178;28;20053;-81
2023/08/16 08:49:15;;;;;;;4.07;1.75;;;;;;;;;;4938479;28;20195;-83
2023/08/16 08:51:42;;;;;;;4.20;1.42;;;;;;;;;;4927530;28;20049;-81
2023/08/16 08:54:08;;;;;;;3.85;1.40;;;;;;;;;;4916378;28;20043;-82
2023/08/16 08:56:35;;;;;;;5.57;1.33;;;;;;;;;;4928460;28;20035;-82
2023/08/16 08:59:02;;;;;;;6.30;2.03;;;;;;;;;;4923084;28;20501;-82
2023/08/16 09:01:29;;;;;;;6.45;1.60;;;;;;;;;;4922106;28;20039;-81
2023/08/16 09:03:56;;;;;;;7.97;2.10;;;;;;;;;;4922511;28;21906;-81
2023/08/16 09:06:23;;;;;;;6.93;1.27;;;;;;;;;;4934068;28;20035;-80
2023/08/16 09:08:49;;;;;;;8.05;2.10;;;;;;;;;;4912288;28;20071;-80
2023/08/16 09:11:15;;;;;;;8.32;1.40;;;;;;;;;;4928349;28;22008;-80
2023/08/16 09:13:41;;;;;;;4.13;1.20;;;;;;;;;;4921004;28;20047;-81
2023/08/16 09:16:07;;;;;;;3.35;1.40;;;;;;;;;;4919940;28;20570;-81
2023/08/16 09:18:34;;;;;;;7.40;1.58;;;;;;;;;;4927886;28;20049;-82
2023/08/16 09:21:00;;;;;;;3.53;1.20;;;;;;;;;;4937691;28;20070;-82
2023/08/16 09:23:26;;;;;;;6.07;1.50;;;;;;;;;;4928745;28;22020;-82
2023/08/16 09:25:53;;;;;;;4.88;1.30;;;;;;;;;;4928758;28;20043;-83
2023/08/16 09:28:20;;;;;;;12.57;1.55;;;;;;;;;;4924710;28;20430;-83
2023/08/16 09:30:46;;;;;;;7.00;2.03;;;;;;;;;;4923890;28;20054;-82
2023/08/16 09:33:15;;;;;;;3.33;1.17;;;;;;;;;;4923274;28;20046;-82
2023/08/16 09:35:48;;;;;;;4.97;2.05;;;;;;;;;;4910821;28;20046;-82
2023/08/16 09:38:15;;;;;;;4.20;1.30;;;;;;;;;;4930631;28;20566;-82
2023/08/16 09:40:54;;;;;;;4.75;1.50;;;;;;;;;;4923033;28;20077;-81
2023/08/16 09:43:20;;;;;;;2.03;1.00;;;;;;;;;;4916348;28;20392;-82
2023/08/16 09:45:48;;;;;;;6.65;1.30;;;;;;;;;;4925142;28;20122;-82
2023/08/16 09:48:14;;;;;;;1.90;1.00;;;;;;;;;;4924575;28;20092;-80
2023/08/16 09:50:40;;;;;;;4.97;1.15;;;;;;;;;;4922667;28;20090;-82
2023/08/16 09:53:06;;;;;;;4.88;1.90;;;;;;;;;;4933658;28;20420;-81
2023/08/16 09:55:35;;;;;;;5.22;1.38;;;;;;;;;;4927648;28;20043;-82
2023/08/16 09:58:02;;;;;;;4.40;1.33;;;;;;;;;;4933299;28;20843;-81
2023/08/16 10:00:29;;;;;;;5.00;1.42;;;;;;;;;;4933708;28;20065;-82
2023/08/16 10:02:56;;;;;;;5.05;1.25;;;;;;;;;;4953513;28;20039;-81
2023/08/16 10:05:23;;;;;;;3.65;0.85;;;;;;;;;;4935891;28;20043;-81
2023/08/16 10:07:49;;;;;;;7.65;1.75;;;;;;;;;;4949945;28;20126;-81
2023/08/16 10:10:16;;;;;;;3.20;0.90;;;;;;;;;;4929032;28;20443;-81
2023/08/16 10:12:42;;;;;;;2.25;0.85;;;;;;;;;;4932243;28;20589;-82
2023/08/16 10:15:09;;;;;;;2.88;0.85;;;;;;;;;;4931406;28;20184;-83
2023/08/16 10:17:42;;;;;;;2.08;0.90;;;;;;;;;;4933481;28;20617;-82
2023/08/16 10:20:12;;;;;;;9.38;1.20;;;;;;;;;;4931360;28;20880;-83
2023/08/16 10:22:39;;;;;;;3.58;1.25;;;;;;;;;;4939605;28;20047;-83
2023/08/16 10:25:13;;;;;;;3.38;1.10;;;;;;;;;;4941397;28;20051;-83
2023/08/16 10:27:45;;;;;;;3.85;1.08;;;22.50;99.90;;;;;;4950117;28;20799;-82
2023/08/16 10:30:22;;;;;;;5.28;1.42;;;;;;;;;;4931636;28;20939;-82
2023/08/16 10:33:03;;;;;;;2.63;1.17;;;;;;;;;;4933777;28;20440;-81
2023/08/16 10:35:29;;;;;;;5.57;1.40;;;;;;;;;;4953796;28;20146;-83
2023/08/16 10:37:57;;;;;;;4.53;1.50;;;;;;;;;;4920292;28;20047;-83
2023/08/16 10:40:24;;;;;;;2.72;1.38;;;;;;;;;;4919815;28;20053;-82
2023/08/16 10:42:56;;;;;;;3.95;1.42;;;;;;;;;;4933659;28;20054;-82
2023/08/16 10:45:30;;;;;;;3.03;1.45;;;;;;;;;;4921085;28;20051;-82
2023/08/16 10:47:56;;;;;;;6.28;1.50;;;;;;;;;;4909145;28;20051;-82
2023/08/16 10:50:32;;;;;;;3.78;1.60;;;;;;;;;;4917703;28;20045;-82
2023/08/16 10:52:59;;;;;;;4.53;1.33;;;;;;;;;;4915421;28;20051;-83
2023/08/16 10:55:26;;;;;;;4.82;1.35;;;;;;;;;;4918717;28;20066;-82
2023/08/16 10:57:53;;;;;;;5.88;1.23;;;;;;;;;;4913288;28;20451;-83
2023/08/16 11:00:19;;;;;;;2.85;1.10;;;;;;;;;;4935175;28;20066;-82
2023/08/16 11:02:49;;;;;;;4.68;1.73;;;;;;;;;;4931762;28;20051;-83
2023/08/16 11:05:18;;;;;;;4.40;1.48;;;;;;;;;;4910071;28;20046;-83
2023/08/16 11:07:44;;;;;;;5.45;1.52;;;;;;;;;;4912962;28;20047;-82
2023/08/16 11:10:10;;;;;;;5.93;1.45;;;;;;;;;;4916016;28;20496;-82
2023/08/16 11:12:36;;;;;;;4.57;1.65;;;;;;;;;;4913947;28;20774;-83
2023/08/16 11:15:03;;;;;;;5.82;1.17;;;;;;;;;;4912030;28;20391;-82
2023/08/16 11:17:30;;;;;;;2.47;0.85;;;;;;;;;;4930852;28;20082;-83
2023/08/16 11:19:56;;;;;;;3.55;1.05;;;;;;;;;;4931742;28;20054;-83
2023/08/16 11:22:24;;;;;;;4.28;1.48;;;;;;;;;;4929490;28;20047;-82
2023/08/16 11:24:50;;;;;;;6.50;1.33;;;;;;;;;;4916507;28;20054;-82
2023/08/16 11:27:21;;;;;;;8.73;1.50;;;;;;;;;;4932089;28;20087;-82
2023/08/16 11:29:51;;;;;;;6.88;1.60;;;;;;;;;;4929153;28;20138;-83
2023/08/16 11:32:30;;;;;;;4.85;1.45;;;;;;;;;;4930656;28;20128;-82
2023/08/16 11:34:56;;;;;;;3.38;1.30;;;;;;;;;;4927313;28;20475;-82
2023/08/16 11:37:22;;;;;;;6.18;1.38;;;;;;;;;;4900189;28;20051;-83
2023/08/16 11:39:58;;;;;;;4.68;1.55;;;;;;;;;;4929989;28;20455;-83
2023/08/16 11:42:25;;;;;;;3.80;1.33;;;;;;;;;;4913689;28;20062;-83
2023/08/16 11:44:52;;;;;;;5.40;1.60;;;;;;;;;;4913761;28;20052;-82
2023/08/16 11:47:18;;;;;;;5.22;1.20;;;;;;;;;;4929121;28;20401;-82
2023/08/16 11:49:44;;;;;;;5.93;1.75;;;;;;;;;;4921703;28;20455;-83
2023/08/16 11:52:10;;;;;;;2.25;1.30;;;;;;;;;;4925398;28;20054;-83
2023/08/16 11:54:37;;;;;;;6.93;1.63;;;;;;;;;;4912722;28;20047;-83
2023/08/16 11:57:03;;;;;;;5.25;1.40;;;;;;;;;;4912758;28;20047;-83
2023/08/16 11:59:34;;;;;;;5.43;1.80;;;;;;;;;;4885540;28;20114;-82
2023/08/16 12:02:07;;;;;;;7.85;1.90;;;;;;;;;;4915671;28;20653;-83
2023/08/16 12:04:33;;;;;;;5.30;1.20;;;;;;;;;;4924174;28;20412;-83
2023/08/16 12:06:59;;;;;;;4.55;1.10;;;;;;;;;;4912860;28;20082;-83
2023/08/16 12:09:26;;;;;;;4.90;1.38;;;;;;;;;;4906180;28;20130;-83
2023/08/16 12:11:52;;;;;;;4.45;1.38;;;;;;;;;;4911638;28;20381;-83
2023/08/16 12:14:18;;;;;;;4.72;1.25;;;;;;;;;;4927873;28;20039;-82
2023/08/16 12:16:44;;;;;;;8.70;1.50;;;;;;;;;;4917491;28;20056;-83
2023/08/16 12:19:10;;;;;;;3.70;1.30;;;;;;;;;;4897940;28;20065;-82
2023/08/16 12:21:36;;;;;;;5.45;1.55;;;;;;;;;;4929745;28;20051;-84
2023/08/16 12:24:02;;;;;;;4.28;1.35;;;;;;;;;;4897629;28;20535;-83
2023/08/16 12:26:28;;;;;;;4.90;1.17;;;;;;;;;;4909637;28;20055;-83
2023/08/16 12:28:56;;;;;;;2.13;1.10;;;;;;;;;;4912778;28;20086;-83
2023/08/16 12:31:22;;;;;;;5.90;1.05;;;;;;;;;;4910180;28;20109;-84
2023/08/16 12:33:48;;;;;;;7.25;1.35;;;;;;;;;;4925275;28;20776;-83
2023/08/16 12:36:14;;;;;;;3.05;1.13;;;;;;;;;;4935949;28;20130;-82
2023/08/16 12:38:40;;;;;;;8.35;1.23;;;;;;;;;;4937389;28;20052;-84
2023/08/16 12:41:07;;;;;;;2.47;0.90;;;;;;;;;;4905347;28;20047;-79
2023/08/16 12:43:33;;;;;;;2.90;1.13;;;;;;;;;;4916061;28;20095;-85
2023/08/16 12:46:05;;;;;;;5.32;1.02;;;;;;;;;;4916348;28;20154;-86
2023/08/16 12:48:31;;;;;;;5.97;1.45;;;;;;;;;;4918487;28;20062;-86
2023/08/16 12:50:57;;;;;;;5.00;1.08;;;;;;;;;;4928846;28;20047;-86
2023/08/16 12:53:23;;;;;;;3.28;1.10;;;;;;;;;;4913804;28;20047;-84
2023/08/16 12:55:49;;;;;;;6.63;1.10;;;;;;;;;;4930452;28;20070;-86
2023/08/16 12:58:15;;;;;;;4.75;1.00;;;;;;;;;;4896404;28;20653;-86
2023/08/16 13:00:41;;;;;;;7.30;1.45;;;;;;;;;;4899298;28;20098;-87
2023/08/16 13:03:08;;;;;;;3.60;1.02;;;;;;;;;;4931639;28;20389;-86
2023/08/16 13:05:34;;;;;;;2.40;0.98;;;;;;;;;;4916468;28;20470;-85
2023/08/16 13:08:00;;;;;;;3.38;1.00;;;;;;;;;;4902307;28;20051;-85
2023/08/16 13:10:28;;;;;;;4.45;1.00;;;;;;;;;;4913009;28;20150;-86
2023/08/16 13:12:54;;;;;;;4.45;1.40;;;;;;;;;;4919840;28;20049;-86
2023/08/16 13:15:20;;;;;;;2.63;0.80;;;;;;;;;;4907855;28;20170;-86
2023/08/16 13:17:46;;;;;;;4.05;1.15;;;;;;;;;;4919829;28;20039;-86
2023/08/16 13:20:14;;;;;;;2.83;1.08;;;;;;;;;;4912078;28;20050;-85
2023/08/16 13:22:40;;;;;;;3.63;1.20;;;;;;;;;;4915559;28;20051;-87
2023/08/16 13:25:07;;;;;;;2.85;0.93;;;;;;;;;;4917090;28;20492;-87
2023/08/16 13:27:33;;;;;;;5.68;1.13;;;;;;;;;;4888760;28;20043;-86
2023/08/16 13:29:59;;;;;;;4.80;1.15;;;;;;;;;;4906407;28;20058;-86
2023/08/16 13:32:25;;;;;;;3.88;1.00;;;;;;;;;;4913704;28;20047;-86
2023/08/16 13:34:51;;;;;;;4.47;1.23;;;;;;;;;;4886934;28;20050;-85
2023/08/16 13:37:17;;;;;;;2.63;1.20;;;;;;;;;;4930869;28;20035;-86
2023/08/16 13:39:47;;;;;;;3.63;1.35;;;;;;;;;;4899892;28;20170;-86
2023/08/16 13:42:13;;;;;;;3.35;1.00;;;;;;;;;;4912866;28;20057;-85
2023/08/16 13:44:41;;;;;;;7.07;1.25;;;;;;;;;;4930063;28;20098;-85
2023/08/16 13:47:07;;;;;;;4.70;1.40;;;;;;;;;;4893197;28;20059;-86
2023/08/16 13:49:33;;;;;;;7.53;1.40;;;;;;;;;;4912322;28;20078;-86
2023/08/16 13:51:59;;;;;;;3.80;1.08;;;;;;;;;;4930223;28;20070;-85
2023/08/16 13:54:26;;;;;;;4.03;1.00;;;;;;;;;;4882763;28;20636;-84
2023/08/16 13:56:52;;;;;;;5.85;1.45;;;;;;;;;;4902388;28;20059;-85
2023/08/16 13:59:19;;;;;;;3.83;1.05;;;;;;;;;;4909404;28;20050;-85
2023/08/16 14:01:45;;;;;;;4.07;1.30;;;;;;;;;;4913325;28;20098;-83
2023/08/16 14:04:11;;;;;;;4.95;1.40;;;;;;;;;;4943130;28;20055;-84
2023/08/16 14:06:37;;;;;;;6.93;1.15;;;;;;;;;;4944783;28;20051;-84
2023/08/16 14:09:03;;;;;;;3.72;1.13;;;;;;;;;;4927910;28;20463;-88
2023/08/16 14:11:30;;;;;;;4.30;1.00;;;;;;;;;;4900703;28;20094;-84
2023/08/16 14:13:56;;;;;;;5.40;1.15;;;;;;;;;;4942143;28;20476;-84
2023/08/16 14:16:22;;;;;;;6.75;1.25;;;;;;;;;;4951777;28;20083;-85
2023/08/16 14:18:48;;;;;;;4.30;1.00;;;;;;;;;;4910606;28;20042;-84
2023/08/16 14:21:14;;;;;;;2.42;0.85;;;;;;;;;;4921947;28;20051;-84
2023/08/16 14:23:43;;;;;;;5.95;1.65;;;;;;;;;;4919845;28;20034;-85
2023/08/16 14:26:09;;;;;;;8.05;1.15;;;;;;;;;;4921424;28;20130;-86
2023/08/16 14:28:35;;;;;;;3.65;1.20;;;;;;;;;;4925391;28;20308;-86
2023/08/16 14:31:02;;;;;;;2.72;1.05;;;;;;;;;;4921313;29;20075;-88
2023/08/16 14:33:28;;;;;;;2.20;1.00;;;;;;;;;;4919699;28;20043;-87
2023/08/16 14:35:55;;;;;;;3.70;1.00;;;;;;;;;;4915003;28;20035;-87
2023/08/16 14:38:21;;;;;;;3.92;0.80;;;;;;;;;;4942572;28;20046;-84
2023/08/16 14:40:47;;;;;;;2.70;1.30;;;;;;;;;;4929300;28;20043;-84